Time;durP1;ratioP1;P1;durP2;ratioP2;P2;SDS_P1;SDS_P2;PMS_P1;PMS_P2;Temp;Humidity;BMP_temperature;BMP_pressure;BME280_temperature;BME280_humidity;BME280_pressure;Samples;Min_cycle;Max_cycle;Signal;HPM_P1;HPM_P2
2023/06/03 00:02:04;;;;;;;18.80;12.63;;;;;;;22.91;59.97;96309.81;5042764;28;20401;-33
2023/06/03 00:04:29;;;;;;;16.70;11.52;;;;;;;22.96;59.77;96305.53;5040594;28;20025;-33
2023/06/03 00:06:56;;;;;;;19.05;12.18;;;;;;;22.79;60.41;96316.66;5048178;28;20032;-33
2023/06/03 00:09:21;;;;;;;15.23;10.48;;;;;;;22.79;60.13;96319.44;5019333;28;20048;-33
2023/06/03 00:11:47;;;;;;;16.08;10.35;;;;;;;22.75;60.43;96316.19;5029528;28;20052;-34
2023/06/03 00:14:12;;;;;;;15.35;9.80;;;;;;;22.80;60.15;96318.16;5034518;28;20040;-33
2023/06/03 00:16:38;;;;;;;14.15;9.27;;;;;;;22.79;60.56;96316.66;5034388;28;20556;-33
2023/06/03 00:19:03;;;;;;;15.20;10.23;;;;;;;22.78;60.31;96318.69;5040088;28;20049;-33
2023/06/03 00:21:30;;;;;;;13.98;10.38;;;;;;;22.98;60.03;96320.34;5037094;28;20185;-34
2023/06/03 00:23:55;;;;;;;11.85;8.57;;;;;;;22.73;60.60;96316.69;5039513;28;20023;-33
2023/06/03 00:26:22;;;;;;;12.20;8.65;;;;;;;22.78;60.63;96313.16;5040942;28;20040;-33
2023/06/03 00:28:48;;;;;;;11.93;8.80;;;;;;;22.75;60.69;96307.88;5034310;28;20017;-34
2023/06/03 00:31:13;;;;;;;11.48;8.07;;;;;;;22.80;60.71;96316.16;5032587;28;20381;-33
2023/06/03 00:33:39;;;;;;;10.60;7.85;;;;;;;22.62;61.09;96315.97;5034008;28;20021;-34
2023/06/03 00:36:05;;;;;;;11.30;8.35;;;;;;;22.82;60.14;96329.47;5041132;28;20120;-35
2023/06/03 00:38:30;;;;;;;12.70;8.50;;;;;;;22.66;60.75;96316.44;5040845;28;20017;-33
2023/06/03 00:40:56;;;;;;;10.07;8.05;;;;;;;22.64;60.53;96322.47;5033849;28;20017;-33
2023/06/03 00:43:21;;;;;;;9.68;7.53;;;;;;;22.61;61.01;96320.00;5039933;28;20376;-33
2023/06/03 00:45:47;;;;;;;9.38;7.63;;;;;;;22.64;60.81;96319.72;5034893;28;20025;-34
2023/06/03 00:48:13;;;;;;;9.90;7.68;;;;;;;22.57;60.79;96318.25;5037308;28;20028;-33
2023/06/03 00:50:39;;;;;;;9.23;7.20;;;;;;;22.48;61.29;96313.00;5042947;28;20029;-33
2023/06/03 00:53:06;;;;;;;11.10;8.23;;;;;;;22.52;61.35;96307.97;5033813;28;20142;-33
2023/06/03 00:55:32;;;;;;;10.25;7.78;;;;;;;22.70;60.97;96314.94;5040802;28;20041;-33
2023/06/03 00:57:58;;;;;;;11.18;7.53;;;;;;;22.70;60.77;96316.94;5034008;28;20520;-33
2023/06/03 01:00:23;;;;;;;9.90;7.30;;;;;;;22.64;61.09;96313.44;5033824;28;20136;-33
2023/06/03 01:02:49;;;;;;;9.20;7.32;;;;;;;22.66;60.63;96317.19;5041098;28;20017;-33
2023/06/03 01:05:15;;;;;;;8.45;6.95;;;;;;;22.49;61.03;96320.06;5039319;28;20029;-36
2023/06/03 01:07:46;;;;;;;8.45;6.45;;;;;;;22.56;61.05;96325.03;5038648;28;20013;-34
2023/06/03 01:10:23;;;;;;;6.80;5.90;;;;;;;22.46;60.84;96321.06;5034577;28;20049;-33
2023/06/03 01:12:57;;;;;;;7.50;5.78;;;;;;;22.49;60.29;96320.06;5033639;28;20491;-33
2023/06/03 01:15:27;;;;;;;7.32;5.72;;;;;;;22.48;60.69;96323.31;5033406;28;20032;-33
2023/06/03 01:17:57;;;;;;;7.43;5.57;;;;;;;22.47;60.53;96324.56;5033536;28;20020;-33
2023/06/03 01:20:26;;;;;;;7.47;5.63;;;;;;;22.51;60.46;96323.03;5034324;28;20029;-33
2023/06/03 01:23:00;;;;;;;6.43;5.20;;;;;;;22.62;59.93;96319.50;5038675;28;20017;-33
2023/06/03 01:25:26;;;;;;;7.45;5.55;;;;;;;22.49;60.39;96328.34;5046959;28;20060;-33
2023/06/03 01:27:52;;;;;;;6.45;5.30;;;;;;;22.38;60.82;96322.81;5033562;28;20028;-33
2023/06/03 01:30:20;;;;;;;7.78;5.18;;;;;;;22.46;60.54;96312.78;5033219;28;20029;-33
2023/06/03 01:32:48;;;;;;;6.63;5.03;;;;;;;22.45;60.08;96307.75;5038881;28;20028;-34
2023/06/03 01:35:14;;;;;;;6.13;5.10;;;;;;;22.41;60.35;96319.06;5033461;28;20557;-33
2023/06/03 01:37:40;;;;;;;7.90;5.20;;;;;;;22.37;60.71;96312.31;5040471;28;20032;-34
2023/06/03 01:40:07;;;;;;;6.00;5.03;;;;;;;22.46;59.79;96310.00;5041032;28;20396;-33
2023/06/03 01:42:33;;;;;;;5.70;4.75;;;;;;;22.48;59.65;96307.50;5039427;28;20080;-33
2023/06/03 01:45:01;;;;;;;6.03;4.65;;;;;;;22.66;59.39;96317.19;5044897;28;20024;-33
2023/06/03 01:47:27;;;;;;;6.15;4.28;;;;;;;22.49;59.95;96311.75;5037038;28;20485;-33
2023/06/03 01:49:55;;;;;;;6.07;4.38;;;;;;;22.59;59.56;96312.22;5044200;28;20068;-33
2023/06/03 01:52:21;;;;;;;5.85;4.75;;;;;;;22.49;59.99;96311.00;5037104;28;20095;-33
2023/06/03 01:54:46;;;;;;;6.30;4.57;;;;;;;22.51;59.94;96306.44;5043891;28;20041;-33
2023/06/03 01:57:12;;;;;;;5.82;4.63;;;;;;;22.46;59.97;96307.25;5044312;28;20025;-33
2023/06/03 01:59:37;;;;;;;5.57;4.47;;;;;;;22.42;60.24;96306.75;5036882;28;20091;-33
2023/06/03 02:02:03;;;;;;;6.43;4.80;;;;;;;22.32;61.03;96310.31;5043780;28;20028;-33
2023/06/03 02:04:29;;;;;;;6.22;4.75;;;;;;;22.42;60.80;96317.78;5036703;28;20018;-33
2023/06/03 02:06:57;;;;;;;6.10;4.55;;;;;;;22.39;60.83;96313.28;5043224;28;20100;-33
2023/06/03 02:09:29;;;;;;;6.18;4.75;;;;;;;22.47;60.96;96311.50;5046192;28;20442;-33
2023/06/03 02:12:00;;;;;;;6.18;4.60;;;;;;;22.41;61.04;96305.25;5040407;28;20017;-33
2023/06/03 02:14:27;;;;;;;5.30;4.35;;;;;;;22.35;61.32;96306.53;5031921;28;20016;-33
2023/06/03 02:16:55;;;;;;;6.00;4.40;;;;;;;22.34;61.05;96289.19;5036348;28;20104;-33
2023/06/03 02:19:24;;;;;;;5.60;4.03;;;;;;;22.46;60.07;96298.94;5036394;28;20026;-33
2023/06/03 02:21:50;;;;;;;4.50;3.90;;;;;;;22.29;60.79;96301.00;5036329;28;20022;-34
2023/06/03 02:24:16;;;;;;;4.07;3.55;;;;;;;22.39;60.12;96299.47;5050135;28;20147;-33
2023/06/03 02:26:53;;;;;;;4.00;3.60;;;;;;;22.43;59.92;96302.72;5043477;28;20108;-33
2023/06/03 02:29:22;;;;;;;4.90;3.78;;;;;;;22.47;59.40;96297.69;5039893;28;20021;-34
2023/06/03 02:31:48;;;;;;;3.72;3.17;;;;;;;22.38;59.43;96309.00;5043642;28;20121;-33
2023/06/03 02:34:14;;;;;;;3.38;2.97;;;;;;;22.41;59.46;96296.94;5036135;28;20069;-33
2023/06/03 02:36:39;;;;;;;4.85;4.35;;;;;;;22.67;58.73;96306.91;5036258;28;20064;-33
2023/06/03 02:39:07;;;;;;;6.32;4.82;;;;;;;22.66;59.16;96310.91;5038907;28;20028;-33
2023/06/03 02:41:33;;;;;;;6.38;5.00;;;;;;;22.66;58.87;96303.38;5038231;28;20030;-33
2023/06/03 02:43:58;;;;;;;8.10;5.90;;;;;;;22.55;59.24;96298.66;5043851;28;20025;-33
2023/06/03 02:46:24;;;;;;;7.03;5.38;;;;;;;22.53;59.35;96306.69;5035945;28;20028;-33
2023/06/03 02:48:49;;;;;;;7.88;5.55;;;;;;;22.55;59.19;96306.94;5042522;28;20028;-33
2023/06/03 02:51:15;;;;;;;7.53;5.47;;;;;;;22.50;59.60;96301.47;5035590;28;20370;-33
2023/06/03 02:53:40;;;;;;;6.85;5.70;;;;;;;22.49;59.55;96302.72;5035693;28;20053;-33
2023/06/03 02:56:06;;;;;;;6.78;5.65;;;;;;;22.71;59.02;96301.84;5043032;28;20056;-33
2023/06/03 02:58:31;;;;;;;8.43;5.78;;;;;;;22.58;59.04;96299.66;5047772;28;20394;-33
2023/06/03 03:00:57;;;;;;;6.85;5.80;;;;;;;22.51;59.20;96303.69;5037287;28;20330;-33
2023/06/03 03:03:24;;;;;;;7.43;5.72;;;;;;;22.54;58.88;96302.69;5035496;28;20039;-33
2023/06/03 03:05:51;;;;;;;7.93;5.90;;;;;;;22.60;58.75;96304.69;5034487;28;20021;-33
2023/06/03 03:08:17;;;;;;;7.47;5.88;;;;;;;22.52;59.02;96304.44;5042398;28;20022;-33
2023/06/03 03:10:42;;;;;;;7.82;6.25;;;;;;;22.52;59.10;96296.16;5035337;28;20033;-33
2023/06/03 03:13:08;;;;;;;7.60;5.75;;;;;;;22.64;58.96;96307.91;5042717;28;20104;-33
2023/06/03 03:15:33;;;;;;;7.53;6.20;;;;;;;22.63;58.60;96298.09;5041169;28;20017;-35
2023/06/03 03:17:59;;;;;;;9.15;5.93;;;;;;;22.68;58.54;96308.41;5035238;28;20021;-33
2023/06/03 03:20:25;;;;;;;8.32;6.10;;;;;;;22.63;58.57;96300.88;5035184;28;20420;-33
2023/06/03 03:22:50;;;;;;;7.35;5.93;;;;;;;22.58;58.99;96294.88;5035109;28;20029;-33
2023/06/03 03:25:16;;;;;;;9.27;6.53;;;;;;;22.54;58.48;96297.16;5042322;28;20112;-33
2023/06/03 03:27:41;;;;;;;7.82;6.25;;;;;;;22.58;59.04;96300.41;5044432;28;20445;-33
2023/06/03 03:30:08;;;;;;;11.30;6.40;;;;;;;22.61;59.01;96306.19;5039645;28;20496;-33
2023/06/03 03:32:35;;;;;;;9.40;7.10;;;;;;;22.61;58.79;96303.41;5042230;28;20033;-33
2023/06/03 03:35:19;;;;;;;8.27;6.93;;;;;;;22.44;59.44;96297.94;5035050;28;20026;-33
2023/06/03 03:37:45;;;;;;;9.82;6.40;;;;;;;22.55;58.94;96298.66;5034928;28;20038;-33
2023/06/03 03:40:20;;;;;;;8.45;6.68;;;;;;;22.56;58.73;96308.44;5034741;28;20021;-33
2023/06/03 03:42:47;;;;;;;9.23;6.78;;;;;;;22.63;58.42;96298.09;5036277;28;20091;-33
2023/06/03 03:45:17;;;;;;;8.18;6.65;;;;;;;22.55;58.84;96311.72;5048036;28;20392;-33
2023/06/03 03:47:42;;;;;;;9.32;6.55;;;;;;;22.49;58.97;96309.00;5041285;28;20127;-33
2023/06/03 03:50:26;;;;;;;8.38;6.95;;;;;;;22.50;58.82;96316.00;5041898;28;20021;-33
2023/06/03 03:52:52;;;;;;;9.70;7.43;;;;;;;22.55;58.83;96306.94;5034847;28;20022;-33
2023/06/03 03:55:17;;;;;;;8.18;6.90;;;;;;;22.21;59.50;96314.59;5041453;28;20048;-33
2023/06/03 03:57:43;;;;;;;10.40;7.10;;;;;;;22.14;60.13;96312.34;5034248;28;20044;-33
2023/06/03 04:00:09;;;;;;;9.63;7.38;;;;;;;22.30;59.56;96312.81;5036401;28;20484;-33
2023/06/03 04:02:41;;;;;;;8.85;7.18;;;;;;;22.31;59.74;96315.06;5039084;28;20449;-33
2023/06/03 04:05:06;;;;;;;10.45;7.88;;;;;;;22.21;60.21;96314.59;5041845;28;20037;-33
2023/06/03 04:07:38;;;;;;;12.20;7.97;;;;;;;22.27;60.15;96322.84;5041449;28;20013;-34
2023/06/03 04:10:09;;;;;;;12.43;7.68;;;;;;;22.27;60.08;96313.81;5034881;28;20032;-33
2023/06/03 04:12:36;;;;;;;11.73;7.28;;;;;;;22.22;60.67;96318.13;5028590;28;20064;-33
2023/06/03 04:15:02;;;;;;;12.93;7.85;;;;;;;22.42;59.62;96303.97;5041224;28;20063;-33
2023/06/03 04:17:30;;;;;;;13.02;8.98;;;;;;;22.52;59.51;96312.72;5048274;28;20426;-34
2023/06/03 04:19:56;;;;;;;17.20;9.77;;;;;;;22.51;59.00;96314.75;5034138;28;20018;-33
2023/06/03 04:22:23;;;;;;;15.85;9.82;;;;;;;22.43;59.75;96324.06;5034464;28;20488;-33
2023/06/03 04:25:09;;;;;;;15.60;8.82;;;;;;;22.38;59.45;96320.06;5038242;28;20052;-33
2023/06/03 04:27:34;;;;;;;11.82;8.10;;;;;;;22.52;59.36;96330.06;5034810;28;20041;-33
2023/06/03 04:30:00;;;;;;;13.85;9.27;;;;;;;22.28;59.80;96326.38;5038670;28;20017;-33
2023/06/03 04:32:26;;;;;;;15.30;9.25;;;;;;;22.49;59.73;96328.34;5036232;28;20029;-34
2023/06/03 04:34:53;;;;;;;16.60;9.88;;;;;;;22.48;59.66;96328.84;5026386;28;20449;-34
2023/06/03 04:37:20;;;;;;;13.35;9.20;;;;;;;22.45;59.73;96324.31;5033015;28;20025;-33
2023/06/03 04:39:46;;;;;;;15.73;9.68;;;;;;;22.39;59.86;96332.63;5034041;28;20080;-33
2023/06/03 04:42:12;;;;;;;11.88;8.80;;;;;;;22.34;60.45;96335.41;5033721;28;20061;-33
2023/06/03 04:44:42;;;;;;;12.15;8.30;;;;;;;22.37;60.63;96326.13;5041289;28;20029;-33
2023/06/03 04:47:11;;;;;;;11.52;8.40;;;;;;;22.42;60.11;96319.81;5034024;28;20116;-33
2023/06/03 04:49:40;;;;;;;11.32;7.75;;;;;;;22.40;59.96;96334.13;5047490;28;20150;-33
2023/06/03 04:52:10;;;;;;;11.45;7.78;;;;;;;22.51;59.84;96327.81;5040836;28;20167;-34
2023/06/03 04:54:40;;;;;;;14.18;9.40;;;;;;;22.55;59.91;96329.06;5033408;28;20049;-33
2023/06/03 04:57:06;;;;;;;18.25;13.00;;;;;;;22.61;59.70;96326.28;5032434;28;20040;-33
2023/06/03 04:59:32;;;;;;;13.70;9.13;;;;;;;22.57;59.93;96337.59;5032438;28;20025;-33
2023/06/03 05:01:58;;;;;;;10.82;7.78;;;;;;;22.53;60.16;96328.81;5034029;28;20033;-33
2023/06/03 05:04:23;;;;;;;10.32;7.22;;;;;;;22.51;60.01;96334.09;5040566;28;20378;-34
2023/06/03 05:06:49;;;;;;;11.73;7.30;;;;;;;22.62;59.61;96333.31;5045410;28;20013;-33
2023/06/03 05:09:15;;;;;;;9.75;7.40;;;;;;;22.58;59.85;96328.03;5034419;28;20018;-33
2023/06/03 05:11:40;;;;;;;9.90;7.30;;;;;;;22.61;59.74;96337.34;5033413;28;20140;-33
2023/06/03 05:14:07;;;;;;;10.00;7.32;;;;;;;22.71;59.41;96340.56;5037204;28;20513;-33
2023/06/03 05:16:33;;;;;;;9.85;7.72;;;;;;;22.50;60.26;96335.34;5037733;28;20025;-33
2023/06/03 05:18:58;;;;;;;11.05;7.70;;;;;;;22.64;59.81;96341.06;5043691;28;20067;-33
2023/06/03 05:21:23;;;;;;;9.75;7.10;;;;;;;22.70;59.34;96334.28;5039643;28;20029;-33
2023/06/03 05:23:49;;;;;;;11.38;7.38;;;;;;;22.65;59.57;96337.06;5043596;28;20128;-34
2023/06/03 05:26:14;;;;;;;9.45;7.68;;;;;;;22.65;59.68;96337.06;5036363;28;20067;-33
2023/06/03 05:28:40;;;;;;;11.20;7.90;;;;;;;22.54;60.17;96335.09;5037894;28;20400;-33
2023/06/03 05:31:06;;;;;;;12.40;7.60;;;;;;;22.74;59.59;96334.03;5037415;28;20060;-33
2023/06/03 05:33:32;;;;;;;10.65;7.43;;;;;;;22.66;59.56;96339.31;5037348;28;20432;-33
2023/06/03 05:35:58;;;;;;;13.68;7.80;;;;;;;22.85;59.05;96339.53;5044196;28;20068;-33
2023/06/03 05:38:24;;;;;;;12.70;7.65;;;;;;;22.62;59.39;96340.84;5044190;28;20060;-33
2023/06/03 05:40:51;;;;;;;11.02;7.57;;;;;;;22.81;59.21;96334.25;5037059;28;20135;-33
2023/06/03 05:43:17;;;;;;;11.30;7.45;;;;;;;22.64;59.88;96341.06;5042449;28;20055;-33
2023/06/03 05:45:43;;;;;;;8.25;6.63;;;;;;;22.72;59.76;96344.84;5039211;28;20036;-33
2023/06/03 05:48:08;;;;;;;9.73;7.65;;;;;;;22.58;60.43;96343.88;5040063;28;20515;-33
2023/06/03 05:50:37;;;;;;;10.88;6.65;;;;;;;22.61;59.88;96348.41;5040289;28;20121;-33
2023/06/03 05:53:03;;;;;;;8.45;6.25;;;;;;;22.71;59.40;96346.84;5037397;28;20055;-33
2023/06/03 05:55:29;;;;;;;9.93;6.40;;;;;;;22.67;59.89;96338.06;5044153;28;20073;-33
2023/06/03 05:57:54;;;;;;;6.95;6.10;;;;;;;22.73;59.57;96343.56;5035464;28;20109;-33
2023/06/03 06:00:20;;;;;;;8.20;6.47;;;;;;;22.82;59.53;96344.06;5036997;28;20144;-33
2023/06/03 06:02:45;;;;;;;7.43;6.25;;;;;;;22.85;58.83;96342.28;5036858;28;20028;-33
2023/06/03 06:05:11;;;;;;;8.60;6.05;;;;;;;22.57;60.05;96348.66;5036750;28;20080;-35
2023/06/03 06:07:36;;;;;;;8.93;6.30;;;;;;;22.75;58.83;96352.13;5048510;28;20020;-34
2023/06/03 06:10:02;;;;;;;8.75;6.63;;;;;;;22.74;59.53;96356.13;5038685;28;20013;-33
2023/06/03 06:12:28;;;;;;;8.13;6.13;;;;;;;22.78;58.88;96351.84;5043840;28;20022;-33
2023/06/03 06:14:53;;;;;;;10.52;6.80;;;;;;;22.78;58.83;96362.16;5036517;28;20022;-33
2023/06/03 06:17:20;;;;;;;7.63;6.25;;;;;;;22.82;59.06;96357.13;5036662;28;20025;-34
2023/06/03 06:19:46;;;;;;;7.82;6.00;;;;;;;22.76;59.16;96364.69;5036448;28;20389;-33
2023/06/03 06:22:12;;;;;;;6.35;5.40;;;;;;;22.88;59.10;96369.66;5034618;28;20021;-34
2023/06/03 06:24:37;;;;;;;7.78;5.78;;;;;;;22.90;58.76;96367.13;5044044;28;20099;-34
2023/06/03 06:27:04;;;;;;;9.32;6.13;;;;;;;22.90;58.58;96366.38;5046682;28;20483;-33
2023/06/03 06:29:30;;;;;;;8.73;6.70;;;;;;;22.88;58.63;96371.66;5037138;28;20091;-33
2023/06/03 06:31:56;;;;;;;7.85;6.20;;;;;;;23.04;58.28;96372.84;5036017;28;20017;-33
2023/06/03 06:34:21;;;;;;;7.90;6.00;;;;;;;22.82;59.38;96368.19;5036093;28;20042;-34
2023/06/03 06:36:52;;;;;;;8.45;6.25;;;;;;;22.80;58.54;96370.69;5036479;28;20464;-33
2023/06/03 06:39:46;;;;;;;11.15;6.03;;;;;;;22.85;58.50;96369.94;5036206;28;20047;-33
2023/06/03 06:42:13;;;;;;;9.15;6.68;;;;;;;22.76;59.27;96373.72;5036020;28;20059;-33
2023/06/03 06:44:47;;;;;;;8.32;6.00;;;;;;;23.02;58.12;96372.59;5034307;28;20426;-33
2023/06/03 06:47:16;;;;;;;6.80;5.18;;;;;;;23.17;57.34;96371.03;5036083;28;20022;-33
2023/06/03 06:49:42;;;;;;;8.75;6.32;;;;;;;23.11;57.55;96364.03;5040648;28;20440;-33
2023/06/03 06:52:11;;;;;;;9.15;6.47;;;;;;;23.03;57.42;96372.09;5035986;28;20121;-33
2023/06/03 06:54:37;;;;;;;7.63;6.55;;;;;;;23.08;57.57;96374.09;5034458;28;20046;-33
2023/06/03 06:57:05;;;;;;;7.97;6.25;;;;;;;22.96;58.29;96374.66;5043301;28;20031;-34
2023/06/03 06:59:31;;;;;;;8.45;6.00;;;;;;;23.07;57.18;96371.84;5040511;28;20029;-33
2023/06/03 07:01:56;;;;;;;8.27;5.90;;;;;;;22.95;58.27;96373.16;5038054;28;20323;-33
2023/06/03 07:04:21;;;;;;;8.95;6.07;;;;;;;23.29;57.00;96366.94;5035501;28;20044;-33
2023/06/03 07:06:47;;;;;;;7.45;5.45;;;;;;;23.10;57.80;96377.13;5035036;28;20056;-33
2023/06/03 07:09:12;;;;;;;9.13;5.50;;;;;;;23.06;57.42;96373.09;5034784;28;20036;-33
2023/06/03 07:11:45;;;;;;;8.02;5.53;;;;;;;23.18;57.07;96383.59;5035428;28;20545;-33
2023/06/03 07:14:12;;;;;;;7.00;6.28;;;;;;;23.13;57.21;96389.91;5043054;28;20416;-33
2023/06/03 07:16:38;;;;;;;8.88;4.88;;;;;;;23.03;57.07;96387.94;5042239;28;20025;-33
2023/06/03 07:19:04;;;;;;;6.05;5.30;;;;;;;23.16;56.82;96386.13;5035025;28;20492;-33
2023/06/03 07:21:30;;;;;;;6.50;5.00;;;;;;;23.19;56.52;96390.63;5035299;28;20534;-33
2023/06/03 07:23:55;;;;;;;7.07;4.93;;;;;;;23.26;56.15;96395.63;5034982;28;20029;-33
2023/06/03 07:26:25;;;;;;;6.40;5.13;;;;;;;23.19;56.63;96387.88;5042660;28;20025;-34
2023/06/03 07:28:51;;;;;;;7.28;4.78;;;;;;;23.24;56.67;96386.34;5038572;28;20465;-33
2023/06/03 07:31:16;;;;;;;6.10;5.30;;;;;;;23.26;56.48;96387.31;5038061;28;20040;-33
2023/06/03 07:33:54;;;;;;;6.75;5.18;;;;;;;23.35;56.04;96386.28;5042430;28;20025;-33
2023/06/03 07:36:21;;;;;;;8.68;5.78;;;;;;;23.35;57.12;96388.28;5033970;28;20036;-33
2023/06/03 07:38:56;;;;;;;6.05;5.18;;;;;;;23.29;56.83;96394.59;5035360;28;20048;-34
2023/06/03 07:41:36;;;;;;;7.78;5.32;;;;;;;23.42;56.39;96396.03;5034694;28;20477;-33
2023/06/03 07:44:05;;;;;;;7.78;5.82;;;;;;;23.32;57.24;96387.28;5027698;28;20028;-33
2023/06/03 07:46:57;;;;;;;8.68;5.45;;;;;;;23.41;57.19;96395.28;5041740;28;20105;-33
2023/06/03 07:49:22;;;;;;;6.90;5.95;;;;;;;23.34;57.63;96395.09;5025621;28;20029;-34
2023/06/03 07:51:50;;;;;;;6.70;5.55;;;;;;;23.37;57.52;96394.06;5032890;28;20029;-33
2023/06/03 07:54:17;;;;;;;6.10;5.25;;;;;;;23.37;57.80;96391.31;5032888;28;20392;-34
2023/06/03 07:56:44;;;;;;;7.97;6.00;;;;;;;23.55;56.91;96394.22;5034822;28;20053;-33
2023/06/03 07:59:12;;;;;;;6.22;5.28;;;;;;;23.29;58.49;96394.59;5034711;28;20025;-33
2023/06/03 08:01:38;;;;;;;7.60;5.43;;;;;;;23.46;57.92;96404.84;5038391;28;20024;-33
2023/06/03 08:04:28;;;;;;;7.35;5.50;;;;;;;23.66;57.22;96401.69;5035416;28;20040;-34
2023/06/03 08:06:59;;;;;;;7.32;5.22;;;;;;;23.43;57.73;96392.00;5037112;28;20473;-34
2023/06/03 08:09:28;;;;;;;6.22;5.18;;;;;;;23.43;57.78;96401.06;5041655;28;20029;-33
2023/06/03 08:11:55;;;;;;;8.20;5.18;;;;;;;23.42;58.21;96396.03;5034421;28;20086;-33
2023/06/03 08:14:21;;;;;;;8.27;5.40;;;;;;;23.50;57.96;96403.31;5036150;28;20030;-33
2023/06/03 08:16:47;;;;;;;5.97;5.32;;;;;;;23.46;57.87;96399.28;5039828;28;20334;-34
2023/06/03 08:19:16;;;;;;;6.75;5.65;;;;;;;23.54;57.32;96391.97;5041544;28;20026;-33
2023/06/03 08:21:42;;;;;;;7.53;5.10;;;;;;;23.44;57.16;96388.72;5034744;28;20075;-33
2023/06/03 08:24:09;;;;;;;6.70;5.15;;;;;;;23.49;57.42;96390.69;5033662;28;20030;-33
2023/06/03 08:26:36;;;;;;;6.78;5.28;;;;;;;23.38;57.67;96395.56;5047387;28;20030;-34
2023/06/03 08:29:03;;;;;;;6.35;5.60;;;;;;;23.47;57.31;96396.03;5034153;28;20017;-33
2023/06/03 08:31:32;;;;;;;6.80;4.80;;;;;;;23.49;57.37;96398.28;5037800;28;20024;-34
2023/06/03 08:33:57;;;;;;;5.93;4.55;;;;;;;23.49;57.23;96403.81;5037900;28;20362;-33
2023/06/03 08:36:23;;;;;;;7.32;4.97;;;;;;;23.55;56.91;96407.31;5036910;28;20029;-33
2023/06/03 08:38:48;;;;;;;5.85;5.03;;;;;;;23.66;56.27;96406.47;5040895;28;20027;-34
2023/06/03 08:41:14;;;;;;;6.82;5.05;;;;;;;23.77;55.87;96415.47;5038783;28;20460;-33
2023/06/03 08:44:01;;;;;;;6.50;5.40;;;;;;;23.67;55.71;96405.97;5035971;28;20029;-33
2023/06/03 08:46:54;;;;;;;5.97;4.80;;;;;;;23.67;55.65;96410.75;5033833;28;20412;-34
2023/06/03 08:49:36;;;;;;;5.90;4.80;;;;;;;23.61;55.69;96414.28;5035527;28;20351;-34
2023/06/03 08:52:03;;;;;;;6.95;4.70;;;;;;;23.59;55.54;96419.63;5041441;28;20021;-34
2023/06/03 08:54:34;;;;;;;5.63;4.88;;;;;;;23.50;55.64;96413.59;5033895;28;20052;-33
2023/06/03 08:57:08;;;;;;;5.38;4.57;;;;;;;23.73;55.05;96412.22;5033636;28;20021;-33
2023/06/03 08:59:37;;;;;;;6.53;4.80;;;;;;;23.64;55.19;96423.59;5033483;28;20441;-33
2023/06/03 09:02:04;;;;;;;5.70;4.72;;;;;;;23.83;54.81;96413.41;5033895;28;20354;-34
2023/06/03 09:04:31;;;;;;;7.30;5.13;;;;;;;23.53;55.67;96418.13;5040798;28;20024;-33
2023/06/03 09:06:58;;;;;;;6.78;5.03;;;;;;;23.64;55.27;96421.59;5032946;28;20083;-33
2023/06/03 09:09:24;;;;;;;5.28;4.78;;;;;;;23.79;54.94;96418.47;5033704;28;20966;-33
2023/06/03 09:11:51;;;;;;;6.95;5.35;;;;;;;23.70;55.29;96421.56;5033677;28;20021;-33
2023/06/03 09:14:18;;;;;;;6.35;4.85;;;;;;;23.78;54.69;96418.97;5033758;28;20080;-33
2023/06/03 09:16:44;;;;;;;6.30;5.10;;;;;;;23.60;55.11;96417.59;5033417;28;20469;-33
2023/06/03 09:19:10;;;;;;;7.03;4.80;;;;;;;23.61;55.25;96425.38;5033595;28;20155;-33
2023/06/03 09:21:37;;;;;;;5.90;5.10;;;;;;;23.69;54.63;96422.06;5040341;28;20083;-33
2023/06/03 09:24:03;;;;;;;10.02;5.15;;;;;;;23.64;54.76;96435.44;5040643;28;20057;-33
2023/06/03 09:26:28;;;;;;;7.15;5.10;;;;;;;23.67;54.55;96425.34;5041317;28;20064;-33
2023/06/03 09:28:54;;;;;;;6.82;5.00;;;;;;;23.63;54.52;96422.09;5033534;28;20440;-34
2023/06/03 09:31:21;;;;;;;5.65;4.90;;;;;;;23.67;54.14;96422.59;5040016;28;20473;-34
2023/06/03 09:33:48;;;;;;;7.32;5.10;;;;;;;23.62;53.92;96426.88;5040313;28;20441;-33
2023/06/03 09:36:15;;;;;;;6.28;4.60;;;;;;;23.71;54.08;96419.53;5039026;28;20500;-33
2023/06/03 09:38:56;;;;;;;8.43;5.30;;;;;;;23.66;54.27;96426.63;5035157;28;20026;-33
2023/06/03 09:41:25;;;;;;;7.32;4.78;;;;;;;23.60;54.06;96420.38;5037243;28;20017;-33
2023/06/03 09:44:01;;;;;;;8.45;5.40;;;;;;;23.47;55.22;96414.63;5033386;28;20029;-33
2023/06/03 09:46:29;;;;;;;9.93;5.32;;;;;;;23.71;55.08;96411.25;5033073;28;20485;-33
2023/06/03 09:49:08;;;;;;;7.80;5.35;;;;;;;23.73;55.18;96414.25;5040107;28;20152;-33
2023/06/03 09:51:41;;;;;;;7.45;5.25;;;;;;;23.62;56.02;96420.59;5032803;28;20037;-34
2023/06/03 09:54:14;;;;;;;10.15;5.60;;;;;;;23.62;55.84;96421.34;5039752;28;20017;-33
2023/06/03 09:56:41;;;;;;;9.77;5.68;;;;;;;23.79;55.14;96421.22;5033484;28;20065;-33
2023/06/03 09:59:17;;;;;;;8.65;5.80;;;;;;;23.71;55.73;96423.06;5032694;28;20025;-33
2023/06/03 10:01:47;;;;;;;7.28;5.55;;;;;;;23.65;56.29;96427.88;5035716;28;20018;-33
2023/06/03 10:04:17;;;;;;;6.88;5.40;;;;;;;23.70;55.69;96426.34;5036992;28;20061;-34
2023/06/03 10:06:43;;;;;;;9.43;6.28;;;;;;;23.77;55.67;96429.31;5048270;28;20020;-33
2023/06/03 10:09:18;;;;;;;9.18;5.18;;;;;;;23.55;56.13;96421.91;5045033;28;20021;-33
2023/06/03 10:11:50;;;;;;;6.13;5.20;;;;;;;23.66;55.80;96426.63;5036615;28;20029;-33
2023/06/03 10:14:26;;;;;;;9.63;5.82;;;;;;;23.58;55.94;96431.22;5036688;28;20036;-34
2023/06/03 10:17:01;;;;;;;6.55;5.28;;;;;;;23.70;55.30;96429.88;5036854;28;20057;-33
2023/06/03 10:19:27;;;;;;;6.18;5.15;;;;;;;23.54;55.80;96430.72;5036477;28;20037;-34
2023/06/03 10:21:54;;;;;;;6.05;5.22;;;;;;;23.59;55.62;96429.94;5041351;28;20021;-34
2023/06/03 10:24:21;;;;;;;6.25;5.25;;;;;;;23.73;55.10;96420.53;5038169;28;20030;-33
2023/06/03 10:26:47;;;;;;;7.22;5.53;;;;;;;23.83;54.54;96418.94;5036276;28;20025;-33
2023/06/03 10:29:15;;;;;;;7.03;5.10;;;;;;;23.67;55.16;96422.59;5036410;28;20104;-33
2023/06/03 10:31:44;;;;;;;11.63;8.68;;;;;;;23.86;54.53;96422.72;5035919;28;20029;-34
2023/06/03 10:34:14;;;;;;;9.00;7.18;;;;;;;23.78;55.02;96428.03;5035975;28;20377;-34
2023/06/03 10:36:41;;;;;;;8.20;6.78;;;;;;;23.70;55.03;96421.56;5036317;28;20021;-33
2023/06/03 10:39:12;;;;;;;7.70;5.55;;;;;;;23.73;54.98;96409.47;5043091;28;20135;-33
2023/06/03 10:41:39;;;;;;;8.52;6.05;;;;;;;23.70;55.02;96404.94;5043444;28;20035;-33
2023/06/03 10:44:05;;;;;;;6.00;5.05;;;;;;;23.60;55.48;96407.28;5035811;28;20021;-33
2023/06/03 10:46:33;;;;;;;6.88;5.60;;;;;;;23.62;55.71;96403.97;5035864;28;20473;-33
2023/06/03 10:49:02;;;;;;;6.97;5.57;;;;;;;23.65;55.50;96408.50;5043550;28;20031;-34
2023/06/03 10:51:45;;;;;;;6.22;5.45;;;;;;;23.71;55.30;96417.53;5035737;28;20025;-34
2023/06/03 10:54:30;;;;;;;9.75;5.88;;;;;;;23.66;55.17;96426.63;5052931;28;20055;-33
2023/06/03 10:57:06;;;;;;;10.13;5.93;;;;;;;23.59;55.34;96421.63;5037663;28;20044;-33
2023/06/03 10:59:42;;;;;;;6.95;5.45;;;;;;;23.72;55.32;96423.81;5040911;28;20408;-34
2023/06/03 11:02:08;;;;;;;7.00;5.25;;;;;;;23.73;54.95;96417.78;5035898;28;20043;-33
2023/06/03 11:04:36;;;;;;;6.13;4.80;;;;;;;23.85;54.61;96410.88;5035341;28;20030;-33
2023/06/03 11:07:03;;;;;;;7.78;5.25;;;;;;;23.71;55.12;96417.53;5042638;28;20150;-33
2023/06/03 11:09:32;;;;;;;6.35;4.90;;;;;;;23.80;54.53;96408.13;5034173;28;20025;-34
2023/06/03 11:12:04;;;;;;;8.07;5.65;;;;;;;23.78;54.05;96414.19;5042623;28;20518;-34
2023/06/03 11:14:29;;;;;;;7.93;5.45;;;;;;;23.77;54.26;96414.69;5049991;28;20442;-33
2023/06/03 11:16:57;;;;;;;6.57;5.20;;;;;;;23.92;54.07;96417.88;5035356;28;20096;-33
2023/06/03 11:19:30;;;;;;;6.85;5.03;;;;;;;23.69;54.67;96428.34;5035258;28;20075;-35
2023/06/03 11:21:55;;;;;;;6.53;5.03;;;;;;;23.65;54.70;96422.34;5035411;28;20393;-34
2023/06/03 11:24:39;;;;;;;6.55;5.30;;;;;;;23.81;54.35;96421.47;5035717;28;20030;-34
2023/06/03 11:27:10;;;;;;;7.00;4.70;;;;;;;23.66;54.56;96429.38;5045395;28;20020;-33
2023/06/03 11:29:57;;;;;;;5.43;4.85;;;;;;;23.73;54.89;96437.16;5036124;28;20030;-33
2023/06/03 11:32:27;;;;;;;6.00;5.40;;;;;;;23.60;55.32;96443.28;5034387;28;20031;-33
2023/06/03 11:34:58;;;;;;;6.45;4.85;;;;;;;23.74;55.11;96440.69;5027964;28;20070;-33
2023/06/03 11:37:44;;;;;;;7.65;5.47;;;;;;;23.79;55.30;96434.34;5035025;28;20029;-33